createdAt,value
2023-03-25T00:01:09.118Z,4.35
2023-03-25T00:03:41.846Z,4.53
2023-03-25T00:06:10.728Z,4.32
2023-03-25T00:08:37.686Z,4.18
2023-03-25T00:11:05.220Z,4.00
2023-03-25T00:13:31.800Z,3.72
2023-03-25T00:15:58.935Z,4.25
2023-03-25T00:18:29.224Z,3.90
2023-03-25T00:20:56.393Z,3.50
2023-03-25T00:23:23.152Z,3.40
2023-03-25T00:25:50.160Z,3.90
2023-03-25T00:28:17.016Z,2.97
2023-03-25T00:30:45.421Z,3.28
2023-03-25T00:33:13.292Z,2.90
2023-03-25T00:35:44.743Z,3.13
2023-03-25T00:38:12.134Z,3.00
2023-03-25T00:40:38.637Z,2.70
2023-03-25T00:43:06.507Z,3.20
2023-03-25T00:45:34.006Z,2.25
2023-03-25T00:48:00.722Z,2.00
2023-03-25T00:50:27.325Z,2.42
2023-03-25T00:52:54.555Z,2.33
2023-03-25T00:55:21.024Z,2.42
2023-03-25T00:57:48.095Z,2.60
2023-03-25T01:00:17.664Z,2.30
2023-03-25T01:02:45.651Z,2.35
2023-03-25T01:05:12.507Z,2.10
2023-03-25T01:07:42.285Z,2.35
2023-03-25T01:10:09.934Z,2.63
2023-03-25T01:12:36.495Z,2.30
2023-03-25T01:15:03.133Z,2.10
2023-03-25T01:17:29.730Z,1.83
2023-03-25T01:19:56.304Z,1.77
2023-03-25T01:22:22.826Z,1.98
2023-03-25T01:24:49.267Z,1.95
2023-03-25T01:27:15.999Z,2.08
2023-03-25T01:29:42.418Z,2.08
2023-03-25T01:32:08.942Z,2.30
2023-03-25T01:34:38.506Z,2.08
2023-03-25T01:37:05.066Z,1.70
2023-03-25T01:39:31.476Z,1.33
2023-03-25T01:41:58.074Z,1.60
2023-03-25T01:44:24.473Z,1.45
2023-03-25T01:46:53.951Z,1.60
2023-03-25T01:49:30.138Z,1.67
2023-03-25T01:52:03.288Z,1.40
2023-03-25T01:54:30.820Z,1.73
2023-03-25T01:56:57.950Z,2.13
2023-03-25T01:59:28.108Z,1.80
2023-03-25T02:01:58.310Z,1.90
2023-03-25T02:04:42.659Z,1.87
2023-03-25T02:07:10.187Z,1.55
2023-03-25T02:09:37.866Z,1.50
2023-03-25T02:12:04.776Z,1.40
2023-03-25T02:14:34.831Z,1.50
2023-03-25T02:17:16.407Z,1.52
2023-03-25T02:20:09.214Z,1.70
2023-03-25T02:23:03.471Z,1.63
2023-03-25T02:25:54.903Z,1.53
2023-03-25T02:28:47.375Z,1.85
2023-03-25T02:31:34.826Z,1.73
2023-03-25T02:34:35.401Z,1.43
2023-03-25T02:37:10.844Z,1.20
2023-03-25T02:39:37.222Z,1.50
2023-03-25T02:42:12.406Z,1.17
2023-03-25T02:44:56.665Z,1.70
2023-03-25T02:47:25.507Z,1.50
2023-03-25T02:50:00.896Z,1.67
2023-03-25T02:52:32.357Z,1.50
2023-03-25T02:55:04.818Z,1.33
2023-03-25T02:57:35.252Z,1.50
2023-03-25T03:00:10.546Z,1.70
2023-03-25T03:02:38.447Z,1.53
2023-03-25T03:05:22.604Z,1.50
2023-03-25T03:08:00.616Z,1.23
2023-03-25T03:10:48.066Z,1.37
2023-03-25T03:13:17.209Z,1.57
2023-03-25T03:15:56.056Z,1.50
2023-03-25T03:18:53.902Z,1.40
2023-03-25T03:21:25.857Z,1.60
2023-03-25T03:24:19.520Z,1.60
2023-03-25T03:26:53.297Z,1.57
2023-03-25T03:29:28.829Z,1.80
2023-03-25T03:32:21.024Z,1.60
2023-03-25T03:34:54.847Z,1.80
2023-03-25T03:37:35.210Z,2.17
2023-03-25T03:40:06.249Z,2.00
2023-03-25T03:42:46.954Z,1.73
2023-03-25T03:45:33.975Z,1.70
2023-03-25T03:48:07.314Z,1.63
2023-03-25T03:50:52.728Z,1.63
2023-03-25T03:53:27.729Z,2.10
2023-03-25T03:56:01.698Z,1.70
2023-03-25T03:58:42.867Z,1.77
2023-03-25T04:01:19.966Z,1.80
2023-03-25T04:03:57.948Z,1.40
2023-03-25T04:06:38.648Z,1.70
2023-03-25T04:09:27.022Z,1.50
2023-03-25T04:11:59.887Z,1.80
2023-03-25T04:14:26.653Z,2.23
2023-03-25T04:16:55.317Z,1.70
2023-03-25T04:19:21.970Z,2.07
2023-03-25T04:21:49.157Z,1.60
2023-03-25T04:24:19.804Z,1.90
2023-03-25T04:26:47.768Z,1.60
2023-03-25T04:29:14.348Z,1.57
2023-03-25T04:31:46.407Z,1.17
2023-03-25T04:34:15.000Z,1.10
2023-03-25T04:36:43.063Z,1.60
2023-03-25T04:39:11.820Z,1.02
2023-03-25T04:41:39.544Z,1.13
2023-03-25T04:44:09.046Z,1.80
2023-03-25T04:46:36.542Z,1.83
2023-03-25T04:49:06.560Z,1.80
2023-03-25T04:51:33.237Z,1.80
2023-03-25T04:53:59.867Z,2.27
2023-03-25T04:56:27.796Z,2.00
2023-03-25T04:58:54.358Z,2.50
2023-03-25T05:01:30.509Z,3.10
2023-03-25T05:04:05.048Z,3.03
2023-03-25T05:06:38.330Z,3.13
2023-03-25T05:09:06.394Z,2.80
2023-03-25T05:11:34.652Z,3.03
2023-03-25T05:14:01.169Z,2.63
2023-03-25T05:16:27.673Z,2.63
2023-03-25T05:18:54.112Z,1.97
2023-03-25T05:21:21.640Z,2.33
2023-03-25T05:23:48.094Z,2.37
2023-03-25T05:26:14.606Z,2.27
2023-03-25T05:28:42.296Z,2.40
2023-03-25T05:31:08.765Z,2.70
2023-03-25T05:33:43.348Z,2.22
2023-03-25T05:36:11.732Z,2.10
2023-03-25T05:38:41.930Z,2.60
2023-03-25T05:41:10.728Z,2.40
2023-03-25T05:43:38.213Z,2.13
2023-03-25T05:46:05.286Z,2.25
2023-03-25T05:48:32.971Z,2.33
2023-03-25T05:51:03.256Z,1.63
2023-03-25T05:53:30.964Z,2.10
2023-03-25T05:55:57.550Z,2.57
2023-03-25T05:58:25.116Z,2.47
2023-03-25T06:00:51.796Z,1.93
2023-03-25T06:03:20.848Z,2.07
2023-03-25T06:05:48.449Z,2.53
2023-03-25T06:08:17.118Z,2.47
2023-03-25T06:10:45.703Z,2.33
2023-03-25T06:13:12.186Z,2.03
2023-03-25T06:15:40.685Z,2.40
2023-03-25T06:18:07.427Z,2.70
2023-03-25T06:20:33.975Z,2.73
2023-03-25T06:23:01.893Z,2.90
2023-03-25T06:25:28.556Z,2.80
2023-03-25T06:27:56.045Z,2.50
2023-03-25T06:30:22.718Z,3.30
2023-03-25T06:32:50.621Z,3.00
2023-03-25T06:35:20.031Z,2.95
2023-03-25T06:37:51.258Z,3.42
2023-03-25T06:40:17.887Z,2.57
2023-03-25T06:42:44.447Z,2.90
2023-03-25T06:45:11.939Z,2.70
2023-03-25T06:47:39.025Z,3.13
2023-03-25T06:50:06.162Z,3.45
2023-03-25T06:52:32.598Z,3.33
2023-03-25T06:54:59.012Z,2.33
2023-03-25T06:57:25.565Z,2.40
2023-03-25T06:59:52.059Z,2.60
2023-03-25T07:02:18.548Z,2.90
2023-03-25T07:04:45.041Z,2.58
2023-03-25T07:07:11.558Z,2.65
2023-03-25T07:09:38.147Z,2.28
2023-03-25T07:12:06.425Z,1.90
2023-03-25T07:14:34.972Z,2.03
2023-03-25T07:17:01.395Z,1.60
2023-03-25T07:19:28.033Z,2.10
2023-03-25T07:21:54.473Z,2.25
2023-03-25T07:24:20.973Z,0.95
2023-03-25T07:26:47.370Z,0.80
2023-03-25T07:29:13.820Z,1.37
2023-03-25T07:31:41.597Z,0.90
2023-03-25T07:34:08.606Z,0.90
2023-03-25T07:36:35.384Z,0.60
2023-03-25T07:39:02.282Z,0.88
2023-03-25T07:41:28.688Z,0.88
2023-03-25T07:43:55.311Z,1.10
2023-03-25T07:46:21.888Z,0.90
2023-03-25T07:48:48.338Z,1.20
2023-03-25T07:51:14.795Z,1.10
2023-03-25T07:53:44.566Z,1.23
2023-03-25T07:56:11.938Z,1.03
2023-03-25T07:58:38.647Z,1.20
2023-03-25T08:01:05.693Z,1.60
2023-03-25T08:03:33.568Z,1.17
2023-03-25T08:06:01.972Z,1.50
2023-03-25T08:08:31.660Z,1.53
2023-03-25T08:10:58.792Z,1.43
2023-03-25T08:13:26.023Z,1.80
2023-03-25T08:15:53.215Z,6.23
2023-03-25T08:18:20.361Z,1.40
2023-03-25T08:20:48.954Z,1.93
2023-03-25T08:23:19.821Z,1.67
2023-03-25T08:25:50.334Z,2.25
2023-03-25T08:28:22.401Z,2.20
2023-03-25T08:30:55.657Z,2.03
2023-03-25T08:33:26.980Z,1.80
2023-03-25T08:35:53.749Z,1.77
2023-03-25T08:38:22.270Z,1.85
2023-03-25T08:40:48.745Z,1.70
2023-03-25T08:43:15.246Z,1.65
2023-03-25T08:45:41.670Z,2.33
2023-03-25T08:48:08.145Z,1.67
2023-03-25T08:50:34.619Z,2.92
2023-03-25T08:53:01.147Z,1.60
2023-03-25T08:55:27.627Z,2.15
2023-03-25T08:57:54.030Z,1.73
2023-03-25T09:00:24.367Z,1.40
2023-03-25T09:02:51.474Z,1.80
2023-03-25T09:05:19.121Z,1.75
2023-03-25T09:07:46.606Z,1.70
2023-03-25T09:10:14.155Z,1.58
2023-03-25T09:12:41.302Z,1.88
2023-03-25T09:15:08.986Z,1.55
2023-03-25T09:17:35.662Z,2.20
2023-03-25T09:20:02.098Z,1.65
2023-03-25T09:22:28.690Z,2.15
2023-03-25T09:24:55.181Z,1.63
2023-03-25T09:27:21.663Z,1.90
2023-03-25T09:29:48.047Z,2.00
2023-03-25T09:32:15.041Z,2.70
2023-03-25T09:34:41.464Z,1.48
2023-03-25T09:37:07.938Z,1.92
2023-03-25T09:39:34.437Z,1.58
2023-03-25T09:42:28.963Z,1.88
2023-03-25T09:44:58.437Z,1.80
2023-03-25T09:47:26.467Z,1.10
2023-03-25T09:50:00.773Z,3.33
2023-03-25T09:52:35.693Z,1.83
2023-03-25T09:55:08.184Z,1.83
2023-03-25T09:57:49.199Z,2.15
2023-03-25T10:00:23.361Z,3.25
2023-03-25T10:02:57.469Z,5.13
2023-03-25T10:05:36.697Z,1.38
2023-03-25T10:08:40.144Z,1.45
2023-03-25T10:11:31.762Z,1.80
2023-03-25T10:14:15.951Z,1.20
2023-03-25T10:16:48.250Z,1.27
2023-03-25T10:19:34.780Z,1.65
2023-03-25T10:22:10.677Z,1.30
2023-03-25T10:24:52.436Z,1.63
2023-03-25T10:27:34.027Z,1.80
2023-03-25T10:30:15.097Z,1.30
2023-03-25T10:32:45.180Z,1.88
2023-03-25T10:35:35.230Z,1.70
2023-03-25T10:38:19.488Z,1.55
2023-03-25T10:40:50.361Z,2.30
2023-03-25T10:43:31.935Z,1.83
2023-03-25T10:46:06.160Z,1.40
2023-03-25T10:48:33.644Z,1.60
2023-03-25T10:51:13.729Z,1.85
2023-03-25T10:53:41.856Z,1.50
2023-03-25T10:56:16.849Z,1.50
2023-03-25T10:58:47.576Z,1.73
2023-03-25T11:01:20.996Z,1.40
2023-03-25T11:03:54.475Z,1.40
2023-03-25T11:06:26.634Z,1.70
2023-03-25T11:09:24.038Z,1.50
2023-03-25T11:11:51.016Z,5.38
2023-03-25T11:14:23.381Z,1.48
2023-03-25T11:16:59.698Z,1.55
2023-03-25T11:19:55.307Z,1.92
2023-03-25T11:22:28.721Z,1.25
2023-03-25T11:25:25.705Z,1.42
2023-03-25T11:28:09.145Z,1.70
2023-03-25T11:30:35.659Z,1.55
2023-03-25T11:33:06.441Z,1.30
2023-03-25T11:35:42.425Z,1.30
2023-03-25T11:38:20.074Z,1.63
2023-03-25T11:40:55.887Z,1.58
2023-03-25T11:43:25.523Z,2.95
2023-03-25T11:45:52.656Z,1.40
2023-03-25T11:48:20.915Z,1.58
2023-03-25T11:50:55.777Z,1.45
2023-03-25T11:53:26.009Z,1.33
2023-03-25T11:55:57.580Z,1.45
2023-03-25T11:58:33.137Z,2.03
2023-03-25T12:01:19.951Z,2.00
2023-03-25T12:03:47.376Z,1.38
2023-03-25T12:06:20.589Z,1.40
2023-03-25T12:08:51.391Z,1.50
2023-03-25T12:11:30.637Z,1.52
2023-03-25T12:14:19.934Z,1.40
2023-03-25T12:16:58.899Z,1.40
2023-03-25T12:19:42.566Z,1.70
2023-03-25T12:22:17.136Z,1.30
2023-03-25T12:24:56.216Z,1.73
2023-03-25T12:27:47.996Z,1.58
2023-03-25T12:30:23.260Z,1.60
2023-03-25T12:33:18.082Z,1.55
2023-03-25T12:36:01.853Z,1.40
2023-03-25T12:38:40.166Z,1.63
2023-03-25T12:41:17.537Z,2.00
2023-03-25T12:44:04.378Z,1.40
2023-03-25T12:47:11.058Z,1.30
2023-03-25T12:49:54.956Z,1.80
2023-03-25T12:52:36.407Z,1.70
2023-03-25T12:55:23.651Z,2.10
2023-03-25T12:58:22.083Z,1.65
2023-03-25T13:01:17.489Z,1.70
2023-03-25T13:04:04.825Z,1.50
2023-03-25T13:06:39.293Z,1.27
2023-03-25T13:09:22.760Z,1.50
2023-03-25T13:12:34.385Z,1.95
2023-03-25T13:15:24.538Z,1.38
2023-03-25T13:18:00.293Z,1.63
2023-03-25T13:20:30.098Z,2.15
2023-03-25T13:23:02.096Z,1.58
2023-03-25T13:25:40.872Z,2.00
2023-03-25T13:28:13.403Z,1.63
2023-03-25T13:30:43.771Z,1.30
2023-03-25T13:33:16.059Z,1.83
2023-03-25T13:35:52.801Z,1.30
2023-03-25T13:38:33.252Z,1.67
2023-03-25T13:41:28.354Z,1.60
2023-03-25T13:44:16.873Z,1.13
2023-03-25T13:46:45.143Z,1.45
2023-03-25T13:49:17.727Z,1.40
2023-03-25T13:51:44.259Z,1.70
2023-03-25T13:54:25.184Z,1.40
2023-03-25T13:57:16.131Z,1.27
2023-03-25T14:00:01.519Z,1.10
2023-03-25T14:02:39.995Z,2.47
2023-03-25T14:05:24.879Z,1.10
2023-03-25T14:08:20.791Z,0.95
2023-03-25T14:11:11.732Z,1.27
2023-03-25T14:13:42.958Z,1.15
2023-03-25T14:16:14.469Z,1.17
2023-03-25T14:18:48.636Z,0.95
2023-03-25T14:21:22.073Z,0.98
2023-03-25T14:23:49.489Z,1.23
2023-03-25T14:26:18.751Z,1.40
2023-03-25T14:28:47.634Z,1.13
2023-03-25T14:31:14.053Z,1.73
2023-03-25T14:33:59.799Z,1.05
2023-03-25T14:36:49.543Z,1.08
2023-03-25T14:39:24.896Z,1.60
2023-03-25T14:42:01.768Z,1.20
2023-03-25T14:44:34.215Z,1.30
2023-03-25T14:47:20.743Z,1.88
2023-03-25T14:50:05.208Z,1.55
2023-03-25T14:52:45.943Z,1.92
2023-03-25T14:55:15.383Z,1.45
2023-03-25T14:57:43.717Z,1.58
2023-03-25T15:00:22.639Z,1.67
2023-03-25T15:03:01.680Z,1.50
2023-03-25T15:05:32.002Z,1.67
2023-03-25T15:08:23.001Z,1.70
2023-03-25T15:11:02.312Z,1.73
2023-03-25T15:13:33.910Z,1.25
2023-03-25T15:16:03.882Z,2.22
2023-03-25T15:18:36.827Z,1.80
2023-03-25T15:21:14.251Z,1.00
2023-03-25T15:23:44.910Z,0.85
2023-03-25T15:26:34.735Z,0.90
2023-03-25T15:29:19.626Z,0.80
2023-03-25T15:31:56.110Z,0.65
2023-03-25T15:34:34.423Z,0.50
2023-03-25T15:37:39.264Z,0.50
2023-03-25T15:40:49.711Z,0.40
2023-03-25T15:44:00.141Z,0.40
2023-03-25T15:47:04.243Z,0.50
2023-03-25T15:49:46.242Z,0.40
2023-03-25T15:52:21.400Z,0.55
2023-03-25T15:54:54.962Z,0.40
2023-03-25T15:57:26.673Z,1.00
2023-03-25T16:00:11.802Z,0.52
2023-03-25T16:03:02.241Z,0.40
2023-03-25T16:05:31.115Z,0.52
2023-03-25T16:08:01.130Z,0.68
2023-03-25T16:10:36.162Z,0.77
2023-03-25T16:13:05.468Z,0.68
2023-03-25T16:15:35.369Z,1.00
2023-03-25T16:18:06.173Z,0.70
2023-03-25T16:20:35.185Z,1.17
2023-03-25T16:23:03.649Z,0.77
2023-03-25T16:25:35.608Z,1.10
2023-03-25T16:28:03.464Z,0.90
2023-03-25T16:30:33.034Z,0.90
2023-03-25T16:33:10.384Z,0.95
2023-03-25T16:35:42.785Z,1.00
2023-03-25T16:38:17.177Z,0.88
2023-03-25T16:40:46.733Z,0.70
2023-03-25T16:43:24.495Z,1.10
2023-03-25T16:45:52.769Z,0.80
2023-03-25T16:48:27.198Z,0.70
2023-03-25T16:50:55.683Z,0.90
2023-03-25T16:53:23.971Z,0.98
2023-03-25T16:55:58.170Z,0.90
2023-03-25T16:58:27.872Z,0.98
2023-03-25T17:00:56.013Z,0.90
2023-03-25T17:03:46.373Z,0.75
2023-03-25T17:06:26.182Z,1.10
2023-03-25T17:08:54.991Z,1.20
2023-03-25T17:11:23.897Z,1.20
2023-03-25T17:13:54.704Z,1.23
2023-03-25T17:16:22.638Z,1.08
2023-03-25T17:18:53.046Z,1.42
2023-03-25T17:21:30.176Z,1.20
2023-03-25T17:24:00.495Z,1.38
2023-03-25T17:26:33.080Z,1.00
2023-03-25T17:29:06.182Z,1.10
2023-03-25T17:31:38.838Z,1.63
2023-03-25T17:34:19.278Z,1.00
2023-03-25T17:36:57.755Z,0.82
2023-03-25T17:39:30.085Z,0.68
2023-03-25T17:42:01.384Z,0.85
2023-03-25T17:44:39.594Z,0.65
2023-03-25T17:47:07.895Z,0.63
2023-03-25T17:49:34.707Z,0.60
2023-03-25T17:52:01.262Z,0.90
2023-03-25T17:54:28.248Z,0.68
2023-03-25T17:56:54.666Z,0.95
2023-03-25T17:59:23.562Z,0.70
2023-03-25T18:01:50.403Z,0.85
2023-03-25T18:04:19.815Z,0.75
2023-03-25T18:06:46.489Z,0.80
2023-03-25T18:09:20.354Z,0.57
2023-03-25T18:11:49.177Z,0.70
2023-03-25T18:14:15.988Z,0.60
2023-03-25T18:16:42.880Z,0.60
2023-03-25T18:19:14.972Z,0.40
2023-03-25T18:21:41.717Z,0.80
2023-03-25T18:24:08.361Z,0.80
2023-03-25T18:26:35.321Z,0.80
2023-03-25T18:29:02.265Z,0.93
2023-03-25T18:31:28.851Z,0.80
2023-03-25T18:33:56.258Z,1.02
2023-03-25T18:36:22.805Z,0.93
2023-03-25T18:38:49.338Z,0.90
2023-03-25T18:41:16.108Z,1.02
2023-03-25T18:43:43.198Z,1.13
2023-03-25T18:46:14.183Z,1.00
2023-03-25T18:48:41.179Z,1.20
2023-03-25T18:51:11.858Z,1.15
2023-03-25T18:53:38.644Z,1.02
2023-03-25T18:56:05.904Z,1.15
2023-03-25T18:58:33.900Z,1.67
2023-03-25T19:01:02.236Z,1.15
2023-03-25T19:03:38.215Z,1.20
2023-03-25T19:06:14.422Z,1.00
2023-03-25T19:08:43.428Z,1.00
2023-03-25T19:11:19.962Z,1.10
2023-03-25T19:13:48.340Z,1.58
2023-03-25T19:16:14.911Z,1.20
2023-03-25T19:18:41.350Z,0.90
2023-03-25T19:21:08.165Z,1.10
2023-03-25T19:23:36.030Z,1.58
2023-03-25T19:26:02.530Z,1.80
2023-03-25T19:28:29.129Z,1.80
2023-03-25T19:30:59.994Z,1.35
2023-03-25T19:33:26.951Z,1.45
2023-03-25T19:35:54.796Z,2.03
2023-03-25T19:38:25.515Z,1.45
2023-03-25T19:41:02.273Z,1.80
2023-03-25T19:43:29.260Z,1.60
2023-03-25T19:45:56.716Z,1.58
2023-03-25T19:48:23.137Z,1.75
2023-03-25T19:50:52.413Z,1.75
2023-03-25T19:53:18.936Z,2.00
2023-03-25T19:55:45.667Z,2.00
2023-03-25T19:58:12.452Z,2.10
2023-03-25T20:00:39.478Z,2.17
2023-03-25T20:03:06.327Z,1.98
2023-03-25T20:05:33.750Z,2.13
2023-03-25T20:08:00.304Z,2.20
2023-03-25T20:10:30.192Z,2.00
2023-03-25T20:12:57.635Z,1.90
2023-03-25T20:15:25.634Z,2.17
2023-03-25T20:17:54.396Z,2.25
2023-03-25T20:20:21.600Z,1.80
2023-03-25T20:22:48.609Z,2.00
2023-03-25T20:25:16.274Z,2.10
2023-03-25T20:27:43.921Z,2.00
2023-03-25T20:30:14.644Z,2.10
2023-03-25T20:32:43.035Z,2.30
2023-03-25T20:35:12.970Z,2.05
2023-03-25T20:37:43.139Z,2.13
2023-03-25T20:40:13.168Z,2.50
2023-03-25T20:42:41.369Z,2.40
2023-03-25T20:45:09.394Z,2.78
2023-03-25T20:47:36.026Z,2.63
2023-03-25T20:50:03.664Z,2.67
2023-03-25T20:52:30.226Z,3.13
2023-03-25T20:54:56.874Z,2.88
2023-03-25T20:57:23.729Z,2.85
2023-03-25T20:59:52.826Z,3.13
2023-03-25T21:02:21.342Z,2.97
2023-03-25T21:04:48.183Z,2.53
2023-03-25T21:07:19.205Z,3.15
2023-03-25T21:09:47.706Z,3.33
2023-03-25T21:12:14.512Z,3.20
2023-03-25T21:14:41.316Z,3.40
2023-03-25T21:17:07.794Z,3.60
2023-03-25T21:19:34.398Z,3.42
2023-03-25T21:22:00.854Z,3.60
2023-03-25T21:24:27.328Z,3.20
2023-03-25T21:26:53.761Z,3.47
2023-03-25T21:29:20.923Z,3.35
2023-03-25T21:31:47.652Z,3.42
2023-03-25T21:34:15.744Z,3.25
2023-03-25T21:36:43.259Z,2.83
2023-03-25T21:39:10.154Z,3.60
2023-03-25T21:41:36.644Z,3.03
2023-03-25T21:44:05.048Z,3.53
2023-03-25T21:46:33.372Z,3.07
2023-03-25T21:49:01.347Z,3.30
2023-03-25T21:51:32.403Z,2.70
2023-03-25T21:54:00.343Z,2.83
2023-03-25T21:56:30.366Z,2.70
2023-03-25T21:58:57.981Z,3.55
2023-03-25T22:01:29.546Z,3.17
2023-03-25T22:03:58.200Z,3.00
2023-03-25T22:06:30.706Z,3.00
2023-03-25T22:08:57.437Z,2.90
2023-03-25T22:11:27.010Z,3.07
2023-03-25T22:13:53.485Z,3.07
2023-03-25T22:16:21.145Z,3.00
2023-03-25T22:18:48.632Z,2.73
2023-03-25T22:21:20.868Z,2.83
2023-03-25T22:23:49.172Z,3.20
2023-03-25T22:26:17.200Z,2.63
2023-03-25T22:28:45.460Z,2.87
2023-03-25T22:31:15.572Z,2.60
2023-03-25T22:33:42.424Z,3.07
2023-03-25T22:36:14.466Z,2.83
2023-03-25T22:38:44.426Z,3.07
2023-03-25T22:41:13.083Z,2.83
2023-03-25T22:43:40.339Z,2.77
2023-03-25T22:46:08.178Z,3.33
2023-03-25T22:48:35.825Z,3.00
2023-03-25T22:51:02.260Z,3.03
2023-03-25T22:53:28.782Z,3.20
2023-03-25T22:55:56.927Z,3.08
2023-03-25T22:58:26.590Z,2.87
2023-03-25T23:00:54.785Z,2.90
2023-03-25T23:03:22.445Z,2.80
2023-03-25T23:06:03.992Z,2.90
2023-03-25T23:08:33.138Z,2.73
2023-03-25T23:11:07.019Z,2.70
2023-03-25T23:13:34.673Z,3.23
2023-03-25T23:16:06.825Z,2.90
2023-03-25T23:18:34.351Z,3.27
2023-03-25T23:21:01.110Z,2.90
2023-03-25T23:23:28.812Z,3.10
2023-03-25T23:26:14.394Z,2.73
2023-03-25T23:28:41.890Z,3.10
2023-03-25T23:31:14.223Z,3.10
2023-03-25T23:33:41.610Z,3.47
2023-03-25T23:36:09.778Z,3.17
2023-03-25T23:38:36.960Z,3.27
2023-03-25T23:41:09.301Z,3.20
2023-03-25T23:43:36.694Z,3.30
2023-03-25T23:46:07.548Z,3.07
2023-03-25T23:48:40.558Z,2.77
2023-03-25T23:51:10.443Z,3.10
2023-03-25T23:53:39.335Z,3.00
2023-03-25T23:56:07.285Z,2.87
2023-03-25T23:58:34.008Z,3.03
